Главная страница
METAR-TAF:

METAR-TAF

Аэропорты :

Сан-Хуан, Пуэрто-Рико, США

широта: 18-27-24N, долгота: 066-05-54W, высота над уровнем моря: 3 м

Текущие метеонаблюдения

Эта сводка был подготовлена 10 часа и 26 минут назад, в 22:45 UTC
Ветер 8 Узел от юго-восточный
Температура 25°C
Влажность 83%
Давление 1016 hPa
Видимость: 8.0 км
Отдельные облака на высоте 3000 фута
Рассеянная облачность на высоте 6000 фута
дождь

METAR: TJIG 152245Z 14008KT 5SM RA SCT030 BKN060 25/22 A3001

Время: 05:11 (09:11 UTC)


TAF: отсутствует

Метеонаблюдения и прогнозы для более 4000 аэропортов (сводки METAR и TAF).

Имеющиеся станции представлены на карте желтыми и красными точками.

Чтобы увидеть название станции, наведите на нее мышь.

Затем щелкните, чтобы увидеть метеонаблюдения и метеопрогнозы.

Управление картой: чтобы увеличить масштаб, щелкните зеленые кнопки с черным крестиком; чтобы уменьшить масштаб, щелкните зеленую кнопку с тире; для просмотра соседних карт щелкайте зеленые стрелки.


METAR-TAF: